Time;durP1;ratioP1;P1;durP2;ratioP2;P2;SDS_P1;SDS_P2;PMS_P1;PMS_P2;Temp;Humidity;BMP_temperature;BMP_pressure;BME280_temperature;BME280_humidity;BME280_pressure;Samples;Min_cycle;Max_cycle;Signal;HPM_P1;HPM_P2
2023/03/25 00:02:07;;;;;;;;;;;;;;;8.03;100.00;92145.38;4969236;28;20292;-76
2023/03/25 00:04:34;;;;;;;;;;;;;;;8.09;100.00;92146.88;4961587;28;19965;-77
2023/03/25 00:07:00;;;;;;;;;;;;;;;8.01;100.00;92149.31;4974624;28;19989;-78
2023/03/25 00:09:25;;;;;;;;;;;;;;;8.13;100.00;92144.50;4968494;28;19922;-77
2023/03/25 00:11:51;;;;;;;;;;;;;;;8.19;100.00;92148.59;4962083;28;19980;-78
2023/03/25 00:14:18;;;;;;;;;;;;;;;8.07;100.00;92145.63;4969721;28;20357;-78
2023/03/25 00:16:47;;;;;;;;;;;;;;;8.09;100.00;92139.06;4954877;29;19929;-78
2023/03/25 00:19:14;;;;;;;;;;;;;;;8.03;100.00;92142.00;4954511;29;19914;-78
2023/03/25 00:21:43;;;;;;;;;;;;;;;8.02;100.00;92132.66;4960456;28;19918;-78
2023/03/25 00:24:16;;;;;;;;;;;;;;;7.96;100.00;92134.53;4973870;28;19922;-77
2023/03/25 00:26:42;;;;;;;;;;;;;;;7.94;100.00;92141.84;4974243;28;19977;-78
2023/03/25 00:29:08;;;;;;;;;;;;;;;7.93;100.00;92129.88;4972974;28;19924;-78
2023/03/25 00:31:34;;;;;;;;;;;;;;;7.91;100.00;92118.94;4973707;28;20288;-78
2023/03/25 00:34:00;;;;;;;;;;;;;;;7.91;100.00;92126.78;4973910;28;19921;-78
2023/03/25 00:36:25;;;;;;;;;;;;;;;8.00;100.00;92112.06;4973711;28;19918;-77
2023/03/25 00:38:51;;;;;;;;;;;;;;;8.05;100.00;92111.22;4972831;28;19914;-78
2023/03/25 00:41:21;;;;;;;;;;;;;;;8.00;100.00;92117.28;4973579;28;19953;-78
2023/03/25 00:43:48;;;;;;;;;;;;;;;8.00;100.00;92116.50;4972617;28;19914;-77
2023/03/25 00:46:13;;;;;;;;;;;;;;;7.92;100.00;92126.50;4973806;28;19917;-77
2023/03/25 00:48:40;;;;;;;;;;;;;;;7.90;100.00;92122.59;4973727;28;19922;-78
2023/03/25 00:51:08;;;;;;;;;;;;;;;7.87;100.00;92125.75;4971522;28;19985;-78
2023/03/25 00:53:35;;;;;;;;;;;;;;;7.86;100.00;92114.56;4976649;28;20138;-78
2023/03/25 00:56:01;;;;;;;;;;;;;;;7.87;100.00;92121.31;4976265;28;20373;-78
2023/03/25 00:58:27;;;;;;;;;;;;;;;7.87;100.00;92116.13;4976248;28;19921;-78
2023/03/25 01:00:55;;;;;;;;;;;;;;;7.97;100.00;92110.03;4976124;28;20292;-76
2023/03/25 01:03:22;;;;;;;;;;;;;;;8.00;100.00;92108.69;4976500;28;19925;-77
2023/03/25 01:05:48;;;;;;;;;;;;;;;7.93;100.00;92103.81;4978881;28;20339;-79
2023/03/25 01:08:13;;;;;;;;;;;;;;;7.90;100.00;92096.53;4977120;28;19929;-79
2023/03/25 01:10:39;;;;;;;;;;;;;;;7.90;100.00;92093.94;4977273;28;19969;-79
2023/03/25 01:13:04;;;;;;;;;;;;;;;7.94;100.00;92089.72;4977154;28;19917;-79
2023/03/25 01:15:30;;;;;;;;;;;;;;;7.91;100.00;92085.06;4972746;28;19919;-79
2023/03/25 01:17:55;;;;;;;;;;;;;;;7.88;100.00;92085.59;4957711;29;20001;-78
2023/03/25 01:20:21;;;;;;;;;;;;;;;7.86;100.00;92072.09;4973775;28;19921;-78
2023/03/25 01:22:46;;;;;;;;;;;;;;;7.85;100.00;92070.53;4941985;29;19919;-79
2023/03/25 01:25:11;;;;;;;;;;;;;;;7.83;100.00;92076.03;4964074;28;19926;-79
2023/03/25 01:27:37;;;;;;;;;;;;;;;7.84;100.00;92074.97;4978747;28;19968;-78
2023/03/25 01:30:03;;;;;;;;;;;;;;;7.85;100.00;92067.94;4976868;28;20396;-79
2023/03/25 01:32:28;;;;;;;;;;;;;;;7.84;100.00;92059.34;4978498;28;20324;-78
2023/03/25 01:34:54;;;;;;;;;;;;;;;7.83;100.00;92049.97;4976642;28;20065;-79
2023/03/25 01:37:19;;;;;;;;;;;;;;;7.80;100.00;92049.75;4978363;28;19922;-78
2023/03/25 01:39:45;;;;;;;;;;;;;;;7.80;100.00;92047.16;4978396;28;19914;-79
2023/03/25 01:42:11;;;;;;;;;;;;;;;7.80;100.00;92052.38;4978642;28;19921;-79
2023/03/25 01:44:36;;;;;;;;;;;;;;;7.77;100.00;92053.69;4978573;28;19914;-77
2023/03/25 01:47:02;;;;;;;;;;;;;;;7.76;100.00;92051.38;4976098;28;19921;-78
2023/03/25 01:49:32;;;;;;;;;;;;;;;7.73;100.00;92055.31;4978171;28;20521;-77
2023/03/25 01:52:11;;;;;;;;;;;;;;;7.71;100.00;92055.56;4978046;28;19914;-78
2023/03/25 01:54:37;;;;;;;;;;;;;;;7.71;100.00;92047.00;4976947;28;19921;-78
2023/03/25 01:57:04;;;;;;;;;;;;;;;7.68;100.00;92050.16;4975989;28;19946;-78
2023/03/25 01:59:29;;;;;;;;;;;;;;;7.68;100.00;92056.16;4978468;28;19968;-78
2023/03/25 02:01:57;;;;;;;;;;;;;;;7.64;100.00;92052.53;4975916;28;19918;-78
2023/03/25 02:04:42;;;;;;;;;;;;;;;7.61;100.00;92050.50;4976264;28;19909;-78
2023/03/25 02:07:09;;;;;;;;;;;;;;;7.59;100.00;92046.59;4991903;28;19918;-78
2023/03/25 02:09:35;;;;;;;;;;;;;;;7.56;100.00;92058.34;4975911;28;19932;-78
2023/03/25 02:12:05;;;;;;;;;;;;;;;7.54;100.00;92050.03;4977706;28;19918;-78
2023/03/25 02:14:33;;;;;;;;;;;;;;;7.48;100.00;92051.16;4977352;28;19925;-78
2023/03/25 02:17:00;;;;;;;;;;;;;;;7.45;100.00;92052.50;4976580;28;19918;-78
2023/03/25 02:19:44;;;;;;;;;;;;;;;7.45;100.00;92051.69;4976008;28;19957;-78
2023/03/25 02:22:40;;;;;;;;;;;;;;;7.46;100.00;92051.44;4977943;28;20372;-78
2023/03/25 02:25:11;;;;;;;;;;;;;;;7.47;100.00;92049.59;4977600;28;19914;-78
2023/03/25 02:27:40;;;;;;;;;;;;;;;7.49;100.00;92052.69;4963371;28;19918;-78
2023/03/25 02:30:18;;;;;;;;;;;;;;;7.54;100.00;92055.25;4967898;28;19914;-78
2023/03/25 02:32:57;;;;;;;;;;;;;;;7.54;100.00;92060.44;4976039;28;20013;-78
2023/03/25 02:35:30;;;;;;;;;;;;;;;7.52;100.00;92052.16;4977790;28;19918;-78
2023/03/25 02:37:57;;;;;;;;;;;;;;;7.56;100.00;92053.13;4974891;28;19914;-78
2023/03/25 02:40:30;;;;;;;;;;;;;;;7.61;100.00;92053.09;4974731;28;19921;-77
2023/03/25 02:43:04;;;;;;;;;;;;;;;7.55;100.00;92049.00;4973869;28;19914;-77
2023/03/25 02:45:33;;;;;;;;;;;;;;;7.56;100.00;92052.38;4973749;28;19914;-77
2023/03/25 02:48:04;;;;;;;;;;;;;;;7.56;100.00;92047.94;4973364;28;19989;-78
2023/03/25 02:50:39;;;;;;;;;;;;;;;7.60;100.00;92048.94;4975078;28;19914;-78
2023/03/25 02:53:09;;;;;;;;;;;;;;;7.64;100.00;92052.53;4974069;28;19913;-78
2023/03/25 02:55:40;;;;;;;;;;;;;;;7.62;100.00;92052.03;4972692;28;20001;-77
2023/03/25 02:58:08;;;;;;;;;;;;;;;7.61;100.00;92047.09;4971272;28;19944;-78
2023/03/25 03:00:37;;;;;;;;;;;;;;;7.68;100.00;92050.16;4962921;28;19922;-77
2023/03/25 03:03:03;;;;;;;;;;;;;;;7.65;100.00;92046.25;4979162;28;19968;-77
2023/03/25 03:05:31;;;;;;;;;;;;;;;7.64;100.00;92046.56;4973787;28;20030;-78
2023/03/25 03:08:17;;;;;;;;;;;;;;;7.61;100.00;92040.06;4973600;28;19918;-77
2023/03/25 03:11:01;;;;;;;;;;;;;;;7.61;100.00;92039.28;4974549;28;19914;-77
2023/03/25 03:13:42;;;;;;;;;;;;;;;7.58;100.00;92043.22;4978042;28;19957;-78
2023/03/25 03:16:23;;;;;;;;;;;;;;;7.56;100.00;92049.75;4974457;28;19914;-77
2023/03/25 03:19:27;;;;;;;;;;;;;;;7.47;100.00;92050.38;4974841;28;19961;-78
2023/03/25 03:22:13;;;;;;;;;;;;;;;7.47;100.00;92045.16;4971509;28;20008;-77
2023/03/25 03:24:42;;;;;;;;;;;;;;;7.45;100.00;92041.28;4972552;28;19918;-78
2023/03/25 03:27:13;;;;;;;;;;;;;;;7.53;100.00;92042.53;4974118;28;19914;-77
2023/03/25 03:29:51;;;;;;;;;;;;;;;7.57;100.00;92044.28;4974793;28;19914;-78
2023/03/25 03:32:20;;;;;;;;;;;;;;;7.47;100.00;92039.94;4973751;28;19914;-77
2023/03/25 03:34:50;;;;;;;;;;;;;;;7.46;100.00;92037.63;4974689;28;20368;-78
2023/03/25 03:37:16;;;;;;;;;;;;;;;7.55;100.00;92043.03;4973488;28;20233;-78
2023/03/25 03:39:44;;;;;;;;;;;;;;;7.54;100.00;92044.81;4974388;28;19909;-77
2023/03/25 03:42:14;;;;;;;;;;;;;;;7.53;100.00;92032.88;4973587;28;19986;-78
2023/03/25 03:44:42;;;;;;;;;;;;;;;7.51;100.00;92040.94;4973391;28;19953;-78
2023/03/25 03:47:12;;;;;;;;;;;;;;;7.46;100.00;92048.81;4973254;28;19981;-78
2023/03/25 03:49:41;;;;;;;;;;;;;;;7.41;100.00;92030.66;4988927;28;19914;-78
2023/03/25 03:52:16;;;;;;;;;;;;;;;7.36;100.00;92048.91;4967717;28;19910;-77
2023/03/25 03:54:52;;;;;;;;;;;;;;;7.30;100.00;92056.03;4970141;28;19922;-77
2023/03/25 03:57:36;;;;;;;;;;;;;;;7.22;100.00;92058.44;4956540;29;20300;-79
2023/03/25 04:00:10;;;;;;;;;;;;;;;7.16;100.00;92064.75;4958068;28;19946;-79
2023/03/25 04:02:51;;;;;;;;;;;;;;;7.10;100.00;92058.81;4976649;28;19956;-79
2023/03/25 04:05:19;;;;;;;;;;;;;;;7.02;100.00;92054.97;4976579;28;19960;-79
2023/03/25 04:07:44;;;;;;;;;;;;;;;6.97;100.00;92069.88;4976217;28;19965;-78
2023/03/25 04:10:17;;;;;;;;;;;;;;;6.94;100.00;92052.22;4969671;28;20297;-78
2023/03/25 04:13:03;;;;;;;;;;;;;;;6.90;100.00;92057.19;4975919;28;20408;-78
2023/03/25 04:15:28;;;;;;;;;;;;;;;6.89;100.00;92055.63;4975826;28;19920;-78
2023/03/25 04:17:54;;;;;;;;;;;;;;;6.90;100.00;92056.41;4975640;28;20005;-79
2023/03/25 04:20:23;;;;;;;;;;;;;;;6.89;100.00;92050.44;4973293;28;19914;-78
2023/03/25 04:22:50;;;;;;;;;;;;;;;6.88;100.00;92054.06;4973960;28;20005;-79
2023/03/25 04:25:16;;;;;;;;;;;;;;;6.83;100.00;92057.50;4975920;28;20296;-79
2023/03/25 04:27:47;;;;;;;;;;;;;;;6.78;100.00;92054.94;4978746;28;19929;-78
2023/03/25 04:30:13;;;;;;;;;;;;;;;6.73;100.00;92062.00;4978244;28;19918;-79
2023/03/25 04:32:39;;;;;;;;;;;;;;;6.67;100.00;92061.25;4980463;28;19916;-79
2023/03/25 04:35:04;;;;;;;;;;;;;;;6.77;100.00;92063.00;4980204;28;19957;-78
2023/03/25 04:37:32;;;;;;;;;;;;;;;6.73;100.00;92057.56;4994843;28;19918;-79
2023/03/25 04:39:58;;;;;;;;;;;;;;;6.74;100.00;92059.13;4979006;28;19914;-79
2023/03/25 04:42:31;;;;;;;;;;;;;;;6.95;100.00;92058.97;4980611;28;20273;-79
2023/03/25 04:44:56;;;;;;;;;;;;;;;6.75;100.00;92046.88;4978731;28;19914;-79
2023/03/25 04:47:23;;;;;;;;;;;;;;;6.64;100.00;92051.38;4978381;28;19925;-79
2023/03/25 04:49:48;;;;;;;;;;;;;;;6.59;100.00;92033.22;4978557;28;19918;-78
2023/03/25 04:52:15;;;;;;;;;;;;;;;6.51;100.00;92036.41;4979744;28;19941;-79
2023/03/25 04:54:41;;;;;;;;;;;;;;;6.41;100.00;92045.06;4978350;28;19925;-78
2023/03/25 04:57:09;;;;;;;;;;;;;;;6.32;100.00;92031.84;4979814;28;19918;-78
2023/03/25 04:59:34;;;;;;;;;;;;;;;6.45;100.00;92031.25;4973753;28;19919;-78
2023/03/25 05:02:01;;;;;;;;;;;;;;;6.30;100.00;92049.53;4959442;29;20484;-78
2023/03/25 05:04:27;;;;;;;;;;;;;;;6.19;100.00;92042.84;4959947;28;19922;-78
2023/03/25 05:06:55;;;;;;;;;;;;;;;6.07;100.00;92048.38;4958540;29;19922;-78
2023/03/25 05:09:21;;;;;;;;;;;;;;;5.98;100.00;92037.78;4971277;28;20296;-79
2023/03/25 05:11:47;;;;;;;;;;;;;;;5.92;100.00;92051.84;4978724;28;19918;-78
2023/03/25 05:14:13;;;;;;;;;;;;;;;5.86;100.00;92054.72;4979000;28;19910;-79
2023/03/25 05:16:39;;;;;;;;;;;;;;;5.81;100.00;92055.53;4979386;28;19936;-79
2023/03/25 05:19:05;;;;;;;;;;;;;;;5.79;100.00;92060.19;4976208;28;20001;-79
2023/03/25 05:21:31;;;;;;;;;;;;;;;5.73;100.00;92056.06;4977358;28;20277;-79
2023/03/25 05:23:57;;;;;;;;;;;;;;;5.70;100.00;92046.22;4979124;28;19917;-79
2023/03/25 05:26:23;;;;;;;;;;;;;;;5.69;100.00;92049.84;4978971;28;19918;-79
2023/03/25 05:28:50;;;;;;;;;;;;;;;5.70;100.00;92059.19;4978103;28;19957;-78
2023/03/25 05:31:16;;;;;;;;;;;;;;;5.71;100.00;92050.34;4960191;28;19937;-79
2023/03/25 05:33:42;;;;;;;;;;;;;;;5.75;100.00;92052.16;4959315;28;19925;-79
2023/03/25 05:36:12;;;;;;;;;;;;;;;5.78;100.00;92056.81;4958342;29;20359;-78
2023/03/25 05:38:40;;;;;;;;;;;;;;;5.82;100.00;92055.22;4959313;28;19965;-78
2023/03/25 05:41:09;;;;;;;;;;;;;;;5.89;100.00;92060.13;4965309;28;19918;-78
2023/03/25 05:43:37;;;;;;;;;;;;;;;5.97;100.00;92056.25;4978667;28;19918;-78
2023/03/25 05:46:04;;;;;;;;;;;;;;;6.12;100.00;92065.78;4977889;28;19916;-78
2023/03/25 05:48:31;;;;;;;;;;;;;;;6.30;100.00;92070.34;4978824;28;20197;-78
2023/03/25 05:50:57;;;;;;;;;;;;;;;6.44;100.00;92081.72;4977159;28;20321;-78
2023/03/25 05:53:23;;;;;;;;;;;;;;;6.93;100.00;92085.25;4961531;28;19925;-78
2023/03/25 05:55:50;;;;;;;;;;;;;;;7.90;100.00;92089.50;4979159;28;19914;-79
2023/03/25 05:58:16;;;;;;;;;;;;;;;8.63;100.00;92076.34;4977722;28;19965;-79
2023/03/25 06:00:42;;;;;;;;;;;;;;;9.46;100.00;92074.72;4977082;28;19977;-78
2023/03/25 06:03:09;;;;;;;;;;;;;;;9.92;100.00;92094.00;4976620;28;20001;-78
2023/03/25 06:05:37;;;;;;;;;;;;;;;10.66;100.00;92095.69;4959402;29;19918;-77
2023/03/25 06:08:03;;;;;;;;;;;;;;;11.45;100.00;92098.53;4959583;29;19942;-78
2023/03/25 06:10:29;;;;;;;;;;;;;;;12.19;100.00;92097.16;4974276;28;19917;-78
2023/03/25 06:12:54;;;;;;;;;;;;;;;12.80;100.00;92096.50;4967374;28;19921;-78
2023/03/25 06:15:27;;;;;;;;;;;;;;;13.37;100.00;92091.06;4977291;28;19917;-79
2023/03/25 06:17:56;;;;;;;;;;;;;;;13.59;100.00;92094.56;4977334;28;19960;-79
2023/03/25 06:20:22;;;;;;;;;;;;;;;14.12;100.00;92099.34;4972401;28;20013;-79
2023/03/25 06:22:47;;;;;;;;;;;;;;;14.54;100.00;92085.47;4979043;28;19997;-80
2023/03/25 06:25:18;;;;;;;;;;;;;;;14.78;99.72;92090.16;4987161;28;19945;-80
2023/03/25 06:27:44;;;;;;;;;;;;;;;15.16;100.00;92092.63;4978180;28;20432;-79
2023/03/25 06:30:11;;;;;;;;;;;;;;;15.61;100.00;92094.56;4978930;28;19972;-81
2023/03/25 06:32:37;;;;;;;;;;;;;;;15.82;90.87;92099.00;4979523;28;19910;-80
2023/03/25 06:35:04;;;;;;;;;;;;;;;15.87;94.34;92096.16;4979050;28;19918;-80
2023/03/25 06:37:30;;;;;;;;;;;;;;;16.53;88.45;92079.34;4968268;28;19922;-80
2023/03/25 06:39:55;;;;;;;;;;;;;;;16.00;86.21;92084.53;4943057;29;20289;-80
2023/03/25 06:42:22;;;;;;;;;;;;;;;15.11;96.73;92106.03;4963493;28;19945;-80
2023/03/25 06:45:11;;;;;;;;;;;;;;;16.32;98.33;92095.31;4949713;29;20300;-80
2023/03/25 06:47:57;;;;;;;;;;;;;;;15.95;99.32;92103.22;4959171;28;20336;-79
2023/03/25 06:50:22;;;;;;;;;;;;;;;16.45;91.12;92088.16;4976936;28;19917;-80
2023/03/25 06:52:48;;;;;;;;;;;;;;;16.49;94.86;92099.59;4978626;28;19914;-80
2023/03/25 06:55:14;;;;;;;;;;;;;;;17.40;80.81;92093.13;4991846;28;19984;-80
2023/03/25 06:57:40;;;;;;;;;;;;;;;17.45;75.69;92106.09;4976620;28;19922;-80
2023/03/25 07:00:07;;;;;;;;;;;;;;;17.29;72.88;92114.00;4976712;28;19994;-80
2023/03/25 07:02:33;;;;;;;;;;;;;;;17.71;69.89;92099.59;4976283;28;19917;-80
2023/03/25 07:04:58;;;;;;;;;;;;;;;16.93;73.11;92112.22;4976035;28;19914;-80
2023/03/25 07:07:25;;;;;;;;;;;;;;;17.21;72.25;92113.03;4975654;28;19922;-80
2023/03/25 07:09:51;;;;;;;;;;;;;;;17.69;71.31;92098.06;4974020;28;19914;-80
2023/03/25 07:12:17;;;;;;;;;;;;;;;16.20;70.64;92103.25;4973284;28;20008;-79
2023/03/25 07:14:43;;;;;;;;;;;;;;;16.39;72.16;92094.75;4970013;28;19950;-80
2023/03/25 07:17:08;;;;;;;;;;;;;;;16.54;74.20;92103.91;4960494;28;19976;-80
2023/03/25 07:19:34;;;;;;;;;;;;;;;15.75;74.99;92109.34;4977301;28;19922;-80
2023/03/25 07:21:59;;;;;;;;;;;;;;;15.71;78.95;92103.16;4975712;28;19969;-80
2023/03/25 07:24:25;;;;;;;;;;;;;;;15.51;72.85;92100.22;4972514;28;20324;-80
2023/03/25 07:26:50;;;;;;;;;;;;;;;14.93;82.13;92100.13;4969463;28;20324;-80
2023/03/25 07:29:18;;;;;;;;;;;;;;;15.21;84.54;92102.22;4975970;28;19950;-79
2023/03/25 07:31:45;;;;;;;;;;;;;;;15.81;79.54;92102.75;4975227;28;19921;-80
2023/03/25 07:34:10;;;;;;;;;;;;;;;16.43;73.89;92101.69;4976120;28;19925;-80
2023/03/25 07:36:36;;;;;;;;;;;;;;;15.68;68.75;92099.28;4976060;28;19921;-78
2023/03/25 07:39:02;;;;;;;;;;;;;;;16.27;71.12;92108.75;4958917;28;19918;-79
2023/03/25 07:41:27;;;;;;;;;;;;;;;16.02;71.35;92114.00;4962169;28;19925;-79
2023/03/25 07:44:04;;;;;;;;;;;;;;;15.93;75.93;92115.22;4987610;28;19918;-80
2023/03/25 07:46:31;;;;;;;;;;;;;;;16.29;74.78;92116.34;4966126;28;19925;-80
2023/03/25 07:48:56;;;;;;;;;;;;;;;17.03;70.65;92122.34;4986153;28;19922;-78
2023/03/25 07:51:22;;;;;;;;;;;;;;;16.87;69.48;92124.91;4973888;28;19944;-80
2023/03/25 07:53:47;;;;;;;;;;;;;;;16.87;69.36;92119.63;4970194;28;19998;-78
2023/03/25 07:56:13;;;;;;;;;;;;;;;16.74;67.16;92126.78;4972256;28;19918;-81
2023/03/25 07:58:39;;;;;;;;;;;;;;;16.97;67.62;92128.97;4975218;28;19914;-80
2023/03/25 08:01:05;;;;;;;;;;;;;;;16.31;84.87;92127.34;4973539;28;19918;-79
2023/03/25 08:03:30;;;;;;;;;;;;;;;15.30;91.35;92145.09;4974013;28;19942;-81
2023/03/25 08:05:59;;;;;;;;;;;;;;;14.54;94.52;92140.78;4973288;28;19961;-82
2023/03/25 08:08:24;;;;;;;;;;;;;;;13.98;100.00;92132.22;4973702;28;19918;-79
2023/03/25 08:10:50;;;;;;;;;;;;;;;13.09;100.00;92151.03;4974278;28;19977;-82
2023/03/25 08:13:16;;;;;;;;;;;;;;;13.38;100.00;92165.47;4990896;28;19921;-82
2023/03/25 08:15:41;;;;;;;;;;;;;;;13.21;100.00;92159.06;4971846;28;20374;-82
2023/03/25 08:18:07;;;;;;;;;;;;;;;12.71;100.00;92160.28;4972199;28;19931;-81
2023/03/25 08:20:32;;;;;;;;;;;;;;;12.68;100.00;92163.53;4972837;28;20005;-81
2023/03/25 08:22:58;;;;;;;;;;;;;;;12.70;100.00;92152.72;4971822;28;19914;-80
2023/03/25 08:25:24;;;;;;;;;;;;;;;12.93;100.00;92158.63;4976799;28;20446;-79
2023/03/25 08:27:50;;;;;;;;;;;;;;;13.21;100.00;92155.69;4974541;28;19926;-77
2023/03/25 08:30:16;;;;;;;;;;;;;;;13.54;100.00;92145.47;4976532;28;19918;-80
2023/03/25 08:32:44;;;;;;;;;;;;;;;13.77;80.92;92153.94;4973850;28;19914;-78
2023/03/25 08:35:11;;;;;;;;;;;;;;;13.61;84.95;92156.28;4969951;28;19926;-78
2023/03/25 08:37:37;;;;;;;;;;;;;;;13.61;99.24;92155.53;4968117;28;19924;-79
2023/03/25 08:40:07;;;;;;;;;;;;;;;13.33;93.83;92140.88;4968160;28;19973;-78
2023/03/25 08:42:33;;;;;;;;;;;;;;;12.92;87.80;92146.53;4975860;28;20017;-80
2023/03/25 08:44:59;;;;;;;;;;;;;;;12.78;92.25;92146.69;4974479;28;19964;-81
2023/03/25 08:47:24;;;;;;;;;;;;;;;12.95;98.75;92143.31;4971375;28;19929;-79
2023/03/25 08:49:50;;;;;;;;;;;;;;;12.93;100.00;92132.34;4968840;28;19918;-80
2023/03/25 08:52:16;;;;;;;;;;;;;;;13.08;98.56;92137.13;4970869;28;19918;-81
2023/03/25 08:54:41;;;;;;;;;;;;;;;12.84;100.00;92145.47;4972125;28;20300;-81
2023/03/25 08:57:06;;;;;;;;;;;;;;;12.70;100.00;92144.84;4984861;28;19929;-81
2023/03/25 08:59:33;;;;;;;;;;;;;;;13.06;100.00;92144.56;4971534;28;19925;-79
2023/03/25 09:01:58;;;;;;;;;;;;;;;13.24;96.49;92144.53;4986046;28;20013;-80
2023/03/25 09:04:24;;;;;;;;;;;;;;;13.35;93.46;92145.03;4967546;28;20024;-80
2023/03/25 09:06:49;;;;;;;;;;;;;;;13.39;88.84;92141.47;4969407;28;20391;-79
2023/03/25 09:09:16;;;;;;;;;;;;;;;13.50;95.01;92142.69;4966417;28;19922;-80
2023/03/25 09:11:42;;;;;;;;;;;;;;;13.25;90.94;92140.84;4972578;28;19914;-80
2023/03/25 09:14:08;;;;;;;;;;;;;;;13.10;95.47;92142.88;4973098;28;19920;-79
2023/03/25 09:16:33;;;;;;;;;;;;;;;13.17;88.08;92157.38;4974439;28;19921;-79
2023/03/25 09:18:59;;;;;;;;;;;;;;;13.55;90.54;92152.28;4990657;28;20343;-79
2023/03/25 09:21:25;;;;;;;;;;;;;;;13.69;86.23;92152.09;4967700;28;19961;-81
2023/03/25 09:23:50;;;;;;;;;;;;;;;13.79;89.76;92149.13;4977287;28;20245;-79
2023/03/25 09:26:16;;;;;;;;;;;;;;;13.56;83.62;92153.06;4976062;28;19925;-80
2023/03/25 09:28:41;;;;;;;;;;;;;;;13.79;79.83;92151.00;4967701;28;19984;-79
2023/03/25 09:31:08;;;;;;;;;;;;;;;13.89;78.90;92148.81;4954571;28;19918;-77
2023/03/25 09:33:34;;;;;;;;;;;;;;;13.65;72.70;92146.69;4972266;28;20017;-76
2023/03/25 09:36:00;;;;;;;;;;;;;;;13.64;72.97;92144.38;4967698;28;20432;-76
2023/03/25 09:38:25;;;;;;;;;;;;;;;13.65;79.71;92151.94;4966367;28;20343;-78
2023/03/25 09:40:50;;;;;;;;;;;;;;;13.39;81.50;92144.09;4971950;28;20438;-79
2023/03/25 09:43:22;;;;;;;;;;;;;;;13.56;77.61;92147.81;4971393;28;19965;-80
2023/03/25 09:45:48;;;;;;;;;;;;;;;13.65;71.58;92151.19;4969330;28;19914;-80
2023/03/25 09:48:32;;;;;;;;;;;;;;;13.43;71.55;92149.50;4974626;28;19953;-79
2023/03/25 09:51:00;;;;;;;;;;;;;;;13.83;69.24;92157.19;4972463;28;19985;-80
2023/03/25 09:54:01;;;;;;;;;;;;;;;13.84;62.82;92158.72;4978175;28;19914;-79
2023/03/25 09:56:29;;;;;;;;;;;;;;;13.72;62.40;92156.75;4976498;28;20369;-79
2023/03/25 09:59:04;;;;;;;;;;;;;;;13.45;68.21;92145.50;4958714;28;19914;-79
2023/03/25 10:01:33;;;;;;;;;;;;;;;13.53;64.71;92139.44;4958354;29;19925;-79
2023/03/25 10:04:10;;;;;;;;;;;;;;;13.37;65.34;92143.63;4958104;29;19914;-79
2023/03/25 10:06:41;;;;;;;;;;;;;;;13.05;65.23;92155.38;4956754;29;19929;-79
2023/03/25 10:09:13;;;;;;;;;;;;;;;13.29;66.58;92144.44;4958067;29;19914;-79
2023/03/25 10:11:38;;;;;;;;;;;;;;;13.44;60.34;92146.59;4954784;29;19921;-79
2023/03/25 10:14:04;;;;;;;;;;;;;;;13.26;59.09;92145.00;4957160;29;19945;-79
2023/03/25 10:16:29;;;;;;;;;;;;;;;13.26;59.64;92143.16;4958768;29;20009;-80
2023/03/25 10:19:01;;;;;;;;;;;;;;;13.70;59.07;92143.13;4958328;28;19961;-80
2023/03/25 10:21:29;;;;;;;;;;;;;;;14.15;55.25;92147.94;4955719;29;20259;-80
2023/03/25 10:23:57;;;;;;;;;;;;;;;14.38;51.89;92146.59;4944532;29;19933;-79
2023/03/25 10:26:26;;;;;;;;;;;;;;;14.04;49.86;92139.63;4959685;28;19925;-79
2023/03/25 10:28:55;;;;;;;;;;;;;;;13.73;48.49;92132.75;4958496;29;19954;-78
2023/03/25 10:31:24;;;;;;;;;;;;;;;13.89;49.08;92140.91;4952871;29;19921;-78
2023/03/25 10:33:55;;;;;;;;;;;;;;;14.30;50.09;92144.78;4957265;28;19919;-78
2023/03/25 10:36:27;;;;;;;;;;;;;;;14.32;49.58;92141.81;4957717;28;20276;-80
2023/03/25 10:38:56;;;;;;;;;;;;;;;14.49;49.27;92133.84;4951656;28;19924;-79
2023/03/25 10:41:24;;;;;;;;;;;;;;;14.90;49.47;92132.38;4950946;29;19950;-80
2023/03/25 10:43:49;;;;;;;;;;;;;;;14.70;47.72;92133.91;4953552;29;20182;-81
2023/03/25 10:46:34;;;;;;;;;;;;;;;14.45;44.39;92125.03;4953372;29;19922;-80
2023/03/25 10:48:59;;;;;;;;;;;;;;;14.52;45.04;92135.06;4956685;29;20365;-80
2023/03/25 10:51:26;;;;;;;;;;;;;;;13.95;41.35;92131.75;4959412;29;19961;-80
2023/03/25 10:53:53;;;;;;;;;;;;;;;13.79;42.17;92129.97;4956354;29;19930;-80
2023/03/25 10:56:21;;;;;;;;;;;;;;;13.60;43.26;92138.19;4956724;28;20012;-80
2023/03/25 10:58:50;;;;;;;;;;;;;;;13.65;45.86;92135.41;4994564;28;19984;-80
2023/03/25 11:01:17;;;;;;;;;;;;;;;13.74;43.73;92144.03;4976601;28;19914;-81
2023/03/25 11:03:42;;;;;;;;;;;;;;;13.72;45.67;92141.72;4977522;28;19914;-81
2023/03/25 11:06:28;;;;;;;;;;;;;;;14.21;47.25;92135.34;4978377;28;19933;-79
2023/03/25 11:09:00;;;;;;;;;;;;;;;14.27;48.69;92132.22;4974201;28;20009;-80
2023/03/25 11:11:32;;;;;;;;;;;;;;;14.29;49.77;92137.97;4971672;28;19928;-80
2023/03/25 11:13:58;;;;;;;;;;;;;;;14.60;53.19;92136.16;4975293;28;19921;-79
2023/03/25 11:16:24;;;;;;;;;;;;;;;14.74;45.58;92131.41;4972004;28;20031;-78
2023/03/25 11:18:51;;;;;;;;;;;;;;;14.98;46.95;92128.91;4976567;28;19922;-80
2023/03/25 11:21:18;;;;;;;;;;;;;;;14.85;49.28;92137.06;4964387;28;20339;-80
2023/03/25 11:23:45;;;;;;;;;;;;;;;14.86;48.96;92135.97;4990038;28;19929;-77
2023/03/25 11:26:12;;;;;;;;;;;;;;;15.13;50.60;92132.84;4974920;28;19914;-78
2023/03/25 11:28:39;;;;;;;;;;;;;;;15.50;45.83;92129.59;4972372;28;19918;-78
2023/03/25 11:31:15;;;;;;;;;;;;;;;15.78;49.50;92129.78;4972200;28;19923;-78
2023/03/25 11:33:42;;;;;;;;;;;;;;;15.49;43.44;92142.00;4967493;28;19922;-77
2023/03/25 11:36:26;;;;;;;;;;;;;;;15.38;47.08;92143.50;4966383;28;20170;-79
2023/03/25 11:38:56;;;;;;;;;;;;;;;15.66;45.75;92153.50;4967933;28;19997;-78
2023/03/25 11:41:22;;;;;;;;;;;;;;;15.40;38.31;92139.44;4965408;28;19914;-78
2023/03/25 11:43:48;;;;;;;;;;;;;;;15.32;46.64;92134.25;4977635;28;19920;-79
2023/03/25 11:46:16;;;;;;;;;;;;;;;15.67;45.28;92134.69;4974141;28;19918;-77
2023/03/25 11:48:43;;;;;;;;;;;;;;;16.06;43.93;92129.19;4951629;28;20482;-78
2023/03/25 11:51:16;;;;;;;;;;;;;;;16.19;40.72;92133.41;4966151;28;19941;-79
2023/03/25 11:53:46;;;;;;;;;;;;;;;16.49;38.80;92135.84;4968718;28;19913;-79
2023/03/25 11:56:21;;;;;;;;;;;;;;;16.69;37.15;92124.38;4956240;28;19914;-79
2023/03/25 11:58:47;;;;;;;;;;;;;;;16.75;33.25;92128.31;4964718;28;19918;-78
2023/03/25 12:01:19;;;;;;;;;;;;;;;17.12;38.24;92130.91;4964110;28;19919;-79
2023/03/25 12:03:45;;;;;;;;;;;;;;;17.32;37.59;92131.84;4976755;28;19921;-78
2023/03/25 12:06:11;;;;;;;;;;;;;;;17.42;34.96;92130.59;4976889;28;19988;-79
2023/03/25 12:08:42;;;;;;;;;;;;;;;17.62;37.24;92126.22;4977532;28;20415;-78
2023/03/25 12:11:15;;;;;;;;;;;;;;;17.80;35.54;92124.03;4966699;28;19953;-79
2023/03/25 12:13:50;;;;;;;;;;;;;;;18.02;34.56;92122.75;4968727;28;19992;-79
2023/03/25 12:16:34;;;;;;;;;;;;;;;17.94;32.64;92110.41;4971568;28;19918;-79
2023/03/25 12:19:07;;;;;;;;;;;;;;;18.07;33.31;92096.75;4969306;28;20491;-79
2023/03/25 12:21:41;;;;;;;;;;;;;;;17.54;30.33;92104.09;4971565;28;20004;-78
2023/03/25 12:24:16;;;;;;;;;;;;;;;17.59;29.54;92095.16;4972527;28;19964;-78
2023/03/25 12:26:55;;;;;;;;;;;;;;;17.52;30.75;92089.66;4973185;28;20024;-80
2023/03/25 12:29:33;;;;;;;;;;;;;;;17.62;31.62;92089.94;4970162;28;20292;-81
2023/03/25 12:32:06;;;;;;;;;;;;;;;17.79;32.27;92093.41;4974337;28;20017;-81
2023/03/25 12:34:34;;;;;;;;;;;;;;;18.00;31.05;92086.00;4976355;28;20376;-81
2023/03/25 12:37:00;;;;;;;;;;;;;;;18.13;27.58;92080.63;4970640;28;19929;-80
2023/03/25 12:39:26;;;;;;;;;;;;;;;18.14;28.95;92063.63;4975727;28;19914;-78
2023/03/25 12:42:03;;;;;;;;;;;;;;;18.25;29.13;92059.34;4975489;28;19914;-80
2023/03/25 12:44:48;;;;;;;;;;;;;;;18.41;29.00;92064.59;4975215;28;19914;-80
2023/03/25 12:47:22;;;;;;;;;;;;;;;18.38;29.21;92066.06;4973952;28;19926;-76
2023/03/25 12:49:54;;;;;;;;;;;;;;;18.27;29.19;92054.47;4976929;28;19921;-80
2023/03/25 12:52:37;;;;;;;;;;;;;;;17.92;28.97;92052.50;4996182;28;19913;-79
2023/03/25 12:55:03;;;;;;;;;;;;;;;17.27;28.49;92053.50;4989796;28;19921;-80